• Join FlightAware (Why Join?)
  • Login
  • US Flag 
10:28PM EDT


 

Airport Tracker/Info


-or-


 

Live Flight TrackerFlight Track Log ✈ N77VZ ✈ 27-Dec-2013 ✈ KSVH - KAPF

Flight Track Log - Related Links

Times and Time Zones

All times are in EST time to prevent confusion due to time zone crossing. See the N77VZ flight status page for this flight to view local times or setup timezone preferences in your user account.

Time Position Orientation Groundspeed Altitude Reporting Facility
EST Latitude Longitude Course Direction KTS MPH feet Rate Location/Type
10:18AM 35.7800 -81.1361 197° South 349 402 8,900  Level Atlanta Center
10:19AM 35.7858 -81.2153 275° West 290 334 10,000 540 Climbing Atlanta Center
10:20AM 35.7922 -81.3044 275° West 270 311 10,000  Level Atlanta Center
10:21AM 35.7522 -81.3828 238° Southwest 257 296 10,000  Level Atlanta Center
10:22AM 35.3728 -80.9910 190° South  Level Estimated
10:22AM 35.6972 -81.4536 226° Southwest 272 313 10,000  Level Atlanta Center
10:23AM 35.2977 -81.0194 197° South  Level FlightAware Approximate
10:23AM 35.6425 -81.5267 227° Southwest 285 328 10,600  Level Atlanta Center
10:24AM 35.5917 -81.5997 229° Southwest 285 328 12,100 1,620 Climbing Atlanta Center
10:25AM 35.5083 -81.5997 180° South 285 328 13,900 2,040 Climbing Atlanta Center
10:26AM 35.4269 -81.5972 179° South 291 335 16,200 1,260 Climbing Atlanta Center
10:27AM 35.3372 -81.5922 177° South 302 348 16,500 120 Climbing Atlanta Center
10:28AM 35.2456 -81.6025 185° South 317 365 16,500  Level Atlanta Center
10:29AM 35.1539 -81.6128 185° South 330 380 16,500 360 Level Atlanta Center
10:30AM 35.0644 -81.6231 185° South 330 380 17,300 480 Climbing Atlanta Center
10:31AM 34.9708 -81.6358 186° South 330 380 17,500 60 Climbing Atlanta Center
10:32AM 34.8811 -81.6461 185° South 330 380 17,500  Level Atlanta Center
10:33AM 34.7875 -81.6564 185° South 330 380 17,500  Level Atlanta Center
10:34AM 34.6939 -81.6667 185° South 330 380 17,500  Level Atlanta Center
10:35AM 34.5939 -81.6769 185° South 330 380 17,500  Level Atlanta Center
10:37AM 34.3961 -81.6972 185° South 332 382 17,500  Level Jacksonville Center
10:38AM 34.3044 -81.7111 187° South 332 382 17,500  Level Jacksonville Center
10:39AM 34.2150 -81.7200 185° South 332 382 17,500  Level Jacksonville Center
10:40AM 34.1272 -81.7286 185° South 332 382 17,500  Level Jacksonville Center
10:41AM 34.0419 -81.7397 186° South 327 376 17,500  Level Jacksonville Center
10:42AM 33.9586 -81.7483 185° South 315 362 17,500  Level Jacksonville Center
10:43AM 33.8772 -81.7569 185° South 303 349 17,500  Level Jacksonville Center
10:44AM 33.7958 -81.7656 185° South 303 349 17,500  Level Jacksonville Center
10:45AM 33.7125 -81.7764 186° South 303 349 17,500  Level Jacksonville Center
10:46AM 33.6292 -81.7825 183° South 298 343 17,500  Level Jacksonville Center
10:47AM 33.5478 -81.7936 186° South 298 343 17,500  Level Jacksonville Center
10:48AM 33.4664 -81.8019 185° South 298 343 17,500  Level Jacksonville Center
10:49AM 33.3853 -81.8106 185° South 298 343 17,500  Level Jacksonville Center
10:50AM 33.3017 -81.8214 186° South 298 343 17,500  Level Jacksonville Center
10:51AM 33.2206 -81.8322 186° South 298 343 17,500  Level Jacksonville Center
10:52AM 33.1411 -81.8408 185° South 292 336 17,500  Level Jacksonville Center
10:53AM 33.0600 -81.8467 183° South 292 336 17,500  Level Jacksonville Center
10:54AM 32.9786 -81.8575 186° South 292 336 17,500  Level Jacksonville Center
10:55AM 32.8972 -81.8658 185° South 292 336 17,500  Level Jacksonville Center
10:56AM 32.8139 -81.8742 185° South 292 336 17,500  Level Jacksonville Center
10:57AM 32.7344 -81.8850 187° South 292 336 17,500  Level Jacksonville Center
10:58AM 32.6553 -81.8958 187° South 292 336 17,500  Level Jacksonville Center
11:00AM 32.4842 -81.9125 185° South 292 336 17,500  Level Jacksonville Center
11:01AM 32.4133 -81.9206 185° South 292 336 17,500  Level Jacksonville Center
11:02AM 32.3236 -81.9314 186° South 292 336 17,500 120 Level Jacksonville Center
11:03AM 32.2486 -81.9394 185° South 297 342 17,800 900 Climbing Jacksonville Center
11:04AM 32.1525 -81.9528 187° South 312 359 19,400 1,440 Climbing Jacksonville Center
11:05AM 32.0628 -81.9636 186° South 326 375 20,700 1,260 Climbing Jacksonville Center
11:06AM 31.9817 -81.9742 186° South 334 384 22,000 1,440 Climbing Jacksonville Center
11:07AM 31.8814 -81.9872 186° South 329 379 23,600 1,740 Climbing Jacksonville Center
11:08AM 31.7939 -81.9981 186° South 329 379 25,500 1,800 Climbing Jacksonville Center
11:09AM 31.7208 -82.0061 185° South 317 365 27,300 1,200 Climbing Jacksonville Center
11:10AM 31.6292 -82.0214 188° South 297 342 28,000 300 Climbing Jacksonville Center
11:11AM 31.5456 -82.0344 188° South 311 358 28,000  Level Jacksonville Center
11:12AM 31.4497 -82.0450 185° South 332 382 28,000  Level Jacksonville Center
11:13AM 31.3536 -82.0581 187° South 348 400 28,000  Level Jacksonville Center
11:14AM 31.2556 -82.0711 186° South 353 406 28,000  Level Jacksonville Center
11:15AM 31.1575 -82.0867 188° South 353 406 28,000  Level Jacksonville Center
11:16AM 31.0575 -82.0994 186° South 353 406 28,000  Level Jacksonville Center
11:17AM 30.9594 -82.1100 185° South 358 412 28,000  Level Jacksonville Center
11:18AM 30.8614 -82.1231 187° South 358 412 28,000  Level Jacksonville Center
11:19AM 30.7611 -82.1358 186° South 358 412 28,000  Level Jacksonville Center
11:20AM 30.6631 -82.1486 186° South 363 418 28,000  Level Jacksonville Center
11:21AM 30.5650 -82.1617 187° South 363 418 28,000  Level Jacksonville Center
11:22AM 30.4628 -82.1694 184° South 350 403 28,000  Level Jacksonville Center
11:23AM 30.3689 -82.1822 187° South 345 397 28,000 -60 Level Jacksonville Center
11:24AM 30.2750 -82.1903 184° South 350 403 27,900 -300 Descending Jacksonville Center
11:25AM 30.1747 -82.1669 169° South 356 410 27,400 -480 Descending Jacksonville Center
11:26AM 30.0722 -82.1461 170° South 361 415 27,000 -240 Descending Jacksonville Center
11:27AM 29.9719 -82.1278 171° South 368 423 27,000  Level Jacksonville Center
11:28AM 29.8736 -82.1022 167° South 368 423 27,000  Level Jacksonville Center
11:29AM 29.7753 -82.0814 170° South 368 423 27,000  Level Jacksonville Center
11:30AM 29.6750 -82.0558 168° South 368 423 27,000  Level Jacksonville Center
11:31AM 29.5789 -82.0353 169° South 373 429 27,000  Level Jacksonville Center
11:32AM 29.4786 -82.0147 170° South 367 422 27,000  Level Jacksonville Center
11:33AM 29.3803 -81.9964 171° South 367 422 27,000  Level Jacksonville Center
11:34AM 29.2819 -81.9711 167° South 367 422 27,000 -120 Level Jacksonville Center
11:35AM 29.1794 -81.9483 169° South 373 429 26,800 -360 Descending Jacksonville Center
11:36AM 29.0769 -81.9233 168° South 373 429 26,300 -480 Descending Jacksonville Center
11:37AM 28.9725 -81.9006 169° South 373 429 25,900 -420 Descending Jacksonville Center
11:40AM 28.7519 -81.8539 169° South 368 423 25,000 -300 Descending Miami Center
11:41AM 28.6483 -81.8306 169° South 376 433 25,000  Level Miami Center
11:42AM 28.5469 -81.8069 168° South 376 433 25,000  Level Miami Center
11:43AM 28.4478 -81.7814 167° South 376 433 25,000 -300 Level Miami Center
11:44AM 28.3314 -81.7669 174° South 371 427 24,400 -540 Descending Miami Center
11:45AM 28.2314 -81.7625 178° South 366 421 24,000 -540 Descending Miami Center
11:46AM 28.1400 -81.7561 176° South 355 409 23,400 -720 Descending Miami Center
11:47AM 28.0461 -81.7544 179° South 343 395 22,600 -900 Descending Miami Center
11:48AM 27.9511 -81.7269 166° South 343 395 21,700 -900 Descending Miami Center
11:49AM 27.8644 -81.6997 164° South 343 395 20,900 -780 Descending Miami Center
11:50AM 27.7858 -81.6753 165° South 332 382 20,200 -780 Descending Miami Center
11:51AM 27.6992 -81.6506 166° South 326 375 19,400 -900 Descending Miami Center
11:52AM 27.6042 -81.6206 164° South 321 369 18,400 -900 Descending Miami Center
11:53AM 27.5192 -81.5961 166° South 321 369 17,600 -1,080 Descending Miami Center
11:54AM 27.4367 -81.5717 165° South 316 364 16,300 -1,260 Descending Miami Center
11:55AM 27.3539 -81.5472 165° South 311 358 15,100 -1,200 Descending Miami Center
11:56AM 27.2711 -81.5228 165° South 311 358 13,900 -1,200 Descending Miami Center
11:57AM 27.1886 -81.4986 165° South 311 358 12,700 -1,260 Descending Miami Center
11:58AM 27.1078 -81.4742 165° South 311 358 11,400 -1,260 Descending Miami Center
11:59AM 27.0292 -81.4525 166° South 311 358 10,200 -720 Descending Miami Center
12:00PM 26.9569 -81.4286 164° South 280 322 10,000 -120 Descending Miami Center
12:01PM 26.8803 -81.4047 164° South 280 322 10,000  Level Miami Center
12:02PM 26.8033 -81.3969 175° South 280 322 10,000  Level Miami Center
12:03PM 26.7239 -81.4011 183° South 275 316 10,000  Level Miami Center
12:04PM 26.6486 -81.4050 183° South 280 322 10,000  Level Miami Center
12:05PM 26.5692 -81.4114 184° South 280 322 10,000  Level Miami Center
12:06PM 26.4917 -81.4175 184° South 280 322 10,000  Level Miami Center
12:08PM 26.3776 -81.5383 204° Southwest  Level Estimated
12:15PM 26.1500 -81.7667 204° Southwest  Level FlightAware Approximate
12:16PM 26.1524 -81.7756 204° Southwest  Level Estimated
12:17PM 26.1524 -81.7756 204° Southwest  Level Estimated
12:18PM 26.1524 -81.7756 204° Southwest  Level Estimated
12:19PM 26.1524 -81.7756 204° Southwest  Level Estimated
12:20PM 26.1524 -81.7756 204° Southwest  Level Estimated
12:21PM 26.1524 -81.7756 204° Southwest  Level Estimated
12:22PM 26.1524 -81.7756 204° Southwest  Level Estimated
12:23PM 26.1524 -81.7756 204° Southwest  Level Estimated